sensor_id;sensor_type;location;lat;lon;timestamp;pressure;altitude;pressure_sealevel;temperature;humidity
38038;BME280;23843;51.320;12.340;2023-04-22T00:00:26;100092.63;;;12.46;66.81
38038;BME280;23843;51.320;12.340;2023-04-22T00:02:51;100091.75;;;12.46;65.16
38038;BME280;23843;51.320;12.340;2023-04-22T00:05:17;100081.63;;;12.38;68.01
38038;BME280;23843;51.320;12.340;2023-04-22T00:07:42;100085.34;;;12.35;66.93
38038;BME280;23843;51.320;12.340;2023-04-22T00:10:08;100073.13;;;12.33;67.56
38038;BME280;23843;51.320;12.340;2023-04-22T00:12:34;100077.78;;;12.29;67.88
38038;BME280;23843;51.320;12.340;2023-04-22T00:15:00;100073.53;;;12.27;68.64
38038;BME280;23843;51.320;12.340;2023-04-22T00:17:27;100070.41;;;12.20;69.69
38038;BME280;23843;51.320;12.340;2023-04-22T00:19:52;100069.03;;;12.14;69.03
38038;BME280;23843;51.320;12.340;2023-04-22T00:22:18;100067.31;;;12.13;69.43
38038;BME280;23843;51.320;12.340;2023-04-22T00:24:43;100068.25;;;12.12;69.25
38038;BME280;23843;51.320;12.340;2023-04-22T00:27:09;100056.78;;;12.12;71.43
38038;BME280;23843;51.320;12.340;2023-04-22T00:29:34;100071.84;;;12.11;70.49
38038;BME280;23843;51.320;12.340;2023-04-22T00:31:59;100063.03;;;12.11;67.92
38038;BME280;23843;51.320;12.340;2023-04-22T00:34:26;100063.13;;;12.09;68.50
38038;BME280;23843;51.320;12.340;2023-04-22T00:36:52;100057.19;;;12.06;67.69
38038;BME280;23843;51.320;12.340;2023-04-22T00:39:17;100061.72;;;12.04;69.12
38038;BME280;23843;51.320;12.340;2023-04-22T00:41:43;100060.13;;;12.01;69.45
38038;BME280;23843;51.320;12.340;2023-04-22T00:44:09;100054.19;;;11.97;70.22
38038;BME280;23843;51.320;12.340;2023-04-22T00:46:36;100052.66;;;11.93;69.83
38038;BME280;23843;51.320;12.340;2023-04-22T00:49:01;100056.38;;;11.91;69.73
38038;BME280;23843;51.320;12.340;2023-04-22T00:51:28;100045.84;;;11.89;71.49
38038;BME280;23843;51.320;12.340;2023-04-22T00:53:53;100047.75;;;11.87;71.67
38038;BME280;23843;51.320;12.340;2023-04-22T00:56:19;100050.56;;;11.84;72.39
38038;BME280;23843;51.320;12.340;2023-04-22T00:58:45;100045.16;;;11.86;71.75
38038;BME280;23843;51.320;12.340;2023-04-22T01:01:11;100042.34;;;11.89;70.90
38038;BME280;23843;51.320;12.340;2023-04-22T01:03:37;100045.09;;;11.87;70.97
38038;BME280;23843;51.320;12.340;2023-04-22T01:06:04;100044.16;;;11.88;70.64
38038;BME280;23843;51.320;12.340;2023-04-22T01:08:32;100041.50;;;11.88;71.83
38038;BME280;23843;51.320;12.340;2023-04-22T01:10:57;100040.53;;;11.89;69.73
38038;BME280;23843;51.320;12.340;2023-04-22T01:13:23;100045.84;;;11.89;69.41
38038;BME280;23843;51.320;12.340;2023-04-22T01:15:49;100046.22;;;11.83;71.58
38038;BME280;23843;51.320;12.340;2023-04-22T01:18:14;100032.00;;;11.84;71.55
38038;BME280;23843;51.320;12.340;2023-04-22T01:20:40;100032.94;;;11.83;70.67
38038;BME280;23843;51.320;12.340;2023-04-22T01:23:11;100039.03;;;11.85;70.63
38038;BME280;23843;51.320;12.340;2023-04-22T01:25:38;100037.22;;;11.86;71.59
38038;BME280;23843;51.320;12.340;2023-04-22T01:28:04;100029.25;;;11.86;70.52
38038;BME280;23843;51.320;12.340;2023-04-22T01:30:30;100024.03;;;11.84;70.71
38038;BME280;23843;51.320;12.340;2023-04-22T01:32:56;100030.09;;;11.86;70.00
38038;BME280;23843;51.320;12.340;2023-04-22T01:35:21;100027.66;;;11.83;71.15
38038;BME280;23843;51.320;12.340;2023-04-22T01:37:47;100035.34;;;11.88;71.19
38038;BME280;23843;51.320;12.340;2023-04-22T01:40:15;100029.91;;;11.89;69.26
38038;BME280;23843;51.320;12.340;2023-04-22T01:42:40;100022.22;;;11.85;72.06
38038;BME280;23843;51.320;12.340;2023-04-22T01:45:06;100026.41;;;11.89;70.44
38038;BME280;23843;51.320;12.340;2023-04-22T01:47:35;100032.69;;;11.88;71.33
38038;BME280;23843;51.320;12.340;2023-04-22T01:50:00;100028.22;;;11.88;70.39
38038;BME280;23843;51.320;12.340;2023-04-22T01:52:26;100028.22;;;11.88;70.87
38038;BME280;23843;51.320;12.340;2023-04-22T01:54:51;100017.78;;;11.85;70.53
38038;BME280;23843;51.320;12.340;2023-04-22T01:57:18;100023.09;;;11.85;72.04
38038;BME280;23843;51.320;12.340;2023-04-22T01:59:44;100030.09;;;11.86;70.19
38038;BME280;23843;51.320;12.340;2023-04-22T02:02:09;100016.06;;;11.84;70.68
38038;BME280;23843;51.320;12.340;2023-04-22T02:04:34;100022.91;;;11.88;71.05
38038;BME280;23843;51.320;12.340;2023-04-22T02:07:00;100026.50;;;11.87;71.32
38038;BME280;23843;51.320;12.340;2023-04-22T02:09:25;100024.72;;;11.88;70.29
38038;BME280;23843;51.320;12.340;2023-04-22T02:11:51;100025.91;;;11.82;71.54
38038;BME280;23843;51.320;12.340;2023-04-22T02:14:18;100026.22;;;11.77;72.72
38038;BME280;23843;51.320;12.340;2023-04-22T02:16:43;100018.16;;;11.79;70.69
38038;BME280;23843;51.320;12.340;2023-04-22T02:19:09;100021.78;;;11.78;72.70
38038;BME280;23843;51.320;12.340;2023-04-22T02:21:34;100024.22;;;11.81;71.20
38038;BME280;23843;51.320;12.340;2023-04-22T02:24:00;100026.13;;;11.79;71.22
38038;BME280;23843;51.320;12.340;2023-04-22T02:26:25;100025.56;;;11.74;71.48
38038;BME280;23843;51.320;12.340;2023-04-22T02:28:51;100013.28;;;11.73;72.20
38038;BME280;23843;51.320;12.340;2023-04-22T02:31:17;100018.75;;;11.70;72.93
38038;BME280;23843;51.320;12.340;2023-04-22T02:33:43;100013.44;;;11.70;71.99
38038;BME280;23843;51.320;12.340;2023-04-22T02:36:08;100019.59;;;11.70;71.76
38038;BME280;23843;51.320;12.340;2023-04-22T02:38:34;100018.13;;;11.66;72.71
38038;BME280;23843;51.320;12.340;2023-04-22T02:40:59;100017.25;;;11.66;73.10
38038;BME280;23843;51.320;12.340;2023-04-22T02:43:25;100012.03;;;11.64;72.54
38038;BME280;23843;51.320;12.340;2023-04-22T02:45:50;100009.47;;;11.63;71.64
38038;BME280;23843;51.320;12.340;2023-04-22T02:48:17;100013.84;;;11.64;73.08
38038;BME280;23843;51.320;12.340;2023-04-22T02:50:42;100013.84;;;11.64;72.29
38038;BME280;23843;51.320;12.340;2023-04-22T02:53:08;100021.25;;;11.59;73.48
38038;BME280;23843;51.320;12.340;2023-04-22T02:55:34;100008.06;;;11.57;73.92
38038;BME280;23843;51.320;12.340;2023-04-22T02:58:00;100011.03;;;11.52;74.24
38038;BME280;23843;51.320;12.340;2023-04-22T03:00:26;100010.25;;;11.50;74.28
38038;BME280;23843;51.320;12.340;2023-04-22T03:02:51;100005.06;;;11.49;74.87
38038;BME280;23843;51.320;12.340;2023-04-22T03:05:18;99998.03;;;11.48;74.60
38038;BME280;23843;51.320;12.340;2023-04-22T03:07:43;100005.06;;;11.49;74.89
38038;BME280;23843;51.320;12.340;2023-04-22T03:10:09;100007.72;;;11.49;73.49
38038;BME280;23843;51.320;12.340;2023-04-22T03:12:35;100011.22;;;11.49;74.29
38038;BME280;23843;51.320;12.340;2023-04-22T03:15:00;100012.91;;;11.50;74.23
38038;BME280;23843;51.320;12.340;2023-04-22T03:17:26;100012.16;;;11.48;74.42
38038;BME280;23843;51.320;12.340;2023-04-22T03:19:51;100014.81;;;11.48;74.14
38038;BME280;23843;51.320;12.340;2023-04-22T03:22:18;100019.47;;;11.45;74.56
38038;BME280;23843;51.320;12.340;2023-04-22T03:24:43;100012.47;;;11.44;75.22
38038;BME280;23843;51.320;12.340;2023-04-22T03:27:09;100007.34;;;11.41;74.49
38038;BME280;23843;51.320;12.340;2023-04-22T03:29:34;100007.16;;;11.44;74.87
38038;BME280;23843;51.320;12.340;2023-04-22T03:32:00;100008.22;;;11.41;74.77
38038;BME280;23843;51.320;12.340;2023-04-22T03:34:25;100009.22;;;11.39;75.38
38038;BME280;23843;51.320;12.340;2023-04-22T03:36:51;100004.13;;;11.35;75.68
38038;BME280;23843;51.320;12.340;2023-04-22T03:39:18;100009.56;;;11.34;75.61
38038;BME280;23843;51.320;12.340;2023-04-22T03:41:43;100006.91;;;11.34;76.47
38038;BME280;23843;51.320;12.340;2023-04-22T03:44:09;100008.59;;;11.35;75.74
38038;BME280;23843;51.320;12.340;2023-04-22T03:46:34;100010.28;;;11.36;76.10
38038;BME280;23843;51.320;12.340;2023-04-22T03:49:00;100004.88;;;11.38;75.79
38038;BME280;23843;51.320;12.340;2023-04-22T03:51:25;100006.50;;;11.40;75.84
38038;BME280;23843;51.320;12.340;2023-04-22T03:53:51;100000.53;;;11.37;76.09
38038;BME280;23843;51.320;12.340;2023-04-22T03:56:17;99998.75;;;11.37;75.58
38038;BME280;23843;51.320;12.340;2023-04-22T03:58:43;100001.47;;;11.35;75.73
38038;BME280;23843;51.320;12.340;2023-04-22T04:01:08;100000.72;;;11.33;75.56
38038;BME280;23843;51.320;12.340;2023-04-22T04:03:34;99999.13;;;11.31;75.97
38038;BME280;23843;51.320;12.340;2023-04-22T04:05:59;99999.88;;;11.33;75.50
38038;BME280;23843;51.320;12.340;2023-04-22T04:08:25;99993.72;;;11.32;75.45
38038;BME280;23843;51.320;12.340;2023-04-22T04:10:50;100000.91;;;11.30;76.34
38038;BME280;23843;51.320;12.340;2023-04-22T04:13:37;99987.09;;;11.25;75.85
38038;BME280;23843;51.320;12.340;2023-04-22T04:16:03;99988.22;;;11.21;76.33
38038;BME280;23843;51.320;12.340;2023-04-22T04:18:28;99992.88;;;11.18;76.19
38038;BME280;23843;51.320;12.340;2023-04-22T04:20:54;100000.91;;;11.16;77.51
38038;BME280;23843;51.320;12.340;2023-04-22T04:23:19;99995.53;;;11.18;77.68
38038;BME280;23843;51.320;12.340;2023-04-22T04:25:45;99998.19;;;11.18;77.74
38038;BME280;23843;51.320;12.340;2023-04-22T04:28:10;99999.88;;;11.19;77.51
38038;BME280;23843;51.320;12.340;2023-04-22T04:30:37;99997.22;;;11.19;77.99
38038;BME280;23843;51.320;12.340;2023-04-22T04:33:03;99996.47;;;11.17;78.32
38038;BME280;23843;51.320;12.340;2023-04-22T04:35:28;100003.97;;;11.24;77.01
38038;BME280;23843;51.320;12.340;2023-04-22T04:37:54;100002.94;;;11.27;77.10
38038;BME280;23843;51.320;12.340;2023-04-22T04:40:19;100002.25;;;11.38;77.92
38038;BME280;23843;51.320;12.340;2023-04-22T04:42:45;100002.31;;;11.50;77.60
38038;BME280;23843;51.320;12.340;2023-04-22T04:45:10;100002.81;;;11.70;77.24
38038;BME280;23843;51.320;12.340;2023-04-22T04:47:37;100010.84;;;11.97;76.92
38038;BME280;23843;51.320;12.340;2023-04-22T04:50:03;100014.53;;;12.21;75.87
38038;BME280;23843;51.320;12.340;2023-04-22T04:52:28;100010.66;;;12.53;74.72
38038;BME280;23843;51.320;12.340;2023-04-22T04:54:54;100004.22;;;12.82;73.08
38038;BME280;23843;51.320;12.340;2023-04-22T04:57:19;100005.91;;;13.09;71.41
38038;BME280;23843;51.320;12.340;2023-04-22T04:59:45;100007.84;;;13.33;71.15
38038;BME280;23843;51.320;12.340;2023-04-22T05:02:10;99999.91;;;13.57;69.76
38038;BME280;23843;51.320;12.340;2023-04-22T05:04:37;99999.28;;;13.77;68.25
38038;BME280;23843;51.320;12.340;2023-04-22T05:07:03;100007.03;;;13.93;68.40
38038;BME280;23843;51.320;12.340;2023-04-22T05:09:28;100021.94;;;14.20;67.81
38038;BME280;23843;51.320;12.340;2023-04-22T05:11:54;100033.25;;;14.34;66.74
38038;BME280;23843;51.320;12.340;2023-04-22T05:14:19;100031.78;;;14.54;65.21
38038;BME280;23843;51.320;12.340;2023-04-22T05:16:44;100029.91;;;14.79;65.44
38038;BME280;23843;51.320;12.340;2023-04-22T05:19:10;100038.44;;;14.95;63.34
38038;BME280;23843;51.320;12.340;2023-04-22T05:21:37;100027.53;;;15.10;63.22
38038;BME280;23843;51.320;12.340;2023-04-22T05:24:03;100025.13;;;15.29;62.34
38038;BME280;23843;51.320;12.340;2023-04-22T05:26:28;100025.69;;;15.55;62.21
38038;BME280;23843;51.320;12.340;2023-04-22T05:28:54;100030.66;;;15.82;61.71
38038;BME280;23843;51.320;12.340;2023-04-22T05:31:19;100031.56;;;16.04;60.69
38038;BME280;23843;51.320;12.340;2023-04-22T05:33:45;100031.28;;;16.18;57.89
38038;BME280;23843;51.320;12.340;2023-04-22T05:36:10;100028.53;;;16.41;58.47
38038;BME280;23843;51.320;12.340;2023-04-22T05:38:37;100034.25;;;16.68;56.62
38038;BME280;23843;51.320;12.340;2023-04-22T05:41:03;100029.16;;;16.86;56.70
38038;BME280;23843;51.320;12.340;2023-04-22T05:43:28;100027.44;;;17.06;55.32
38038;BME280;23843;51.320;12.340;2023-04-22T05:45:54;100025.03;;;17.24;54.41
38038;BME280;23843;51.320;12.340;2023-04-22T05:48:19;100023.91;;;17.27;50.68
38038;BME280;23843;51.320;12.340;2023-04-22T05:50:44;100029.88;;;17.40;54.38
38038;BME280;23843;51.320;12.340;2023-04-22T05:53:10;100028.00;;;17.71;55.08
38038;BME280;23843;51.320;12.340;2023-04-22T05:55:37;100025.03;;;18.34;53.31
38038;BME280;23843;51.320;12.340;2023-04-22T05:58:02;100025.00;;;19.30;53.19
38038;BME280;23843;51.320;12.340;2023-04-22T06:00:28;100025.69;;;19.70;51.81
38038;BME280;23843;51.320;12.340;2023-04-22T06:02:53;100023.00;;;20.69;47.39
38038;BME280;23843;51.320;12.340;2023-04-22T06:05:26;100018.03;;;21.34;45.05
38038;BME280;23843;51.320;12.340;2023-04-22T06:07:52;100019.63;;;21.88;44.87
38038;BME280;23843;51.320;12.340;2023-04-22T06:10:17;100018.34;;;21.57;42.76
38038;BME280;23843;51.320;12.340;2023-04-22T06:12:44;100017.13;;;21.44;43.50
38038;BME280;23843;51.320;12.340;2023-04-22T06:15:10;100025.66;;;21.13;43.19
38038;BME280;23843;51.320;12.340;2023-04-22T06:17:35;100015.94;;;21.46;41.89
38038;BME280;23843;51.320;12.340;2023-04-22T06:20:01;100016.31;;;21.59;40.88
38038;BME280;23843;51.320;12.340;2023-04-22T06:22:26;100016.88;;;22.22;41.35
38038;BME280;23843;51.320;12.340;2023-04-22T06:24:52;100020.59;;;22.46;41.38
38038;BME280;23843;51.320;12.340;2023-04-22T06:27:18;100021.44;;;22.71;40.64
38038;BME280;23843;51.320;12.340;2023-04-22T06:29:44;100020.06;;;22.99;42.20
38038;BME280;23843;51.320;12.340;2023-04-22T06:32:10;100021.88;;;23.63;42.33
38038;BME280;23843;51.320;12.340;2023-04-22T06:34:35;100021.09;;;24.25;39.21
38038;BME280;23843;51.320;12.340;2023-04-22T06:37:02;100022.97;;;24.70;35.30
38038;BME280;23843;51.320;12.340;2023-04-22T06:39:27;100018.19;;;25.25;35.65
38038;BME280;23843;51.320;12.340;2023-04-22T06:41:53;100025.31;;;25.41;36.79
38038;BME280;23843;51.320;12.340;2023-04-22T06:44:19;100020.84;;;24.81;36.23
38038;BME280;23843;51.320;12.340;2023-04-22T06:46:45;100022.97;;;25.23;35.03
38038;BME280;23843;51.320;12.340;2023-04-22T06:49:11;100012.38;;;25.58;34.60
38038;BME280;23843;51.320;12.340;2023-04-22T06:51:36;100008.44;;;25.46;33.61
38038;BME280;23843;51.320;12.340;2023-04-22T06:54:02;100013.78;;;25.69;33.69
38038;BME280;23843;51.320;12.340;2023-04-22T06:56:28;100016.06;;;26.23;31.79
38038;BME280;23843;51.320;12.340;2023-04-22T06:58:53;100015.72;;;27.25;31.80
38038;BME280;23843;51.320;12.340;2023-04-22T07:01:19;100011.91;;;28.16;29.80
38038;BME280;23843;51.320;12.340;2023-04-22T07:03:46;100009.88;;;29.31;30.65
38038;BME280;23843;51.320;12.340;2023-04-22T07:06:11;100008.97;;;29.51;28.69
38038;BME280;23843;51.320;12.340;2023-04-22T07:08:37;100005.72;;;28.95;29.08
38038;BME280;23843;51.320;12.340;2023-04-22T07:11:02;100003.91;;;27.94;29.72
38038;BME280;23843;51.320;12.340;2023-04-22T07:13:28;100005.44;;;27.21;29.29
38038;BME280;23843;51.320;12.340;2023-04-22T07:15:53;100000.06;;;27.75;30.54
38038;BME280;23843;51.320;12.340;2023-04-22T07:18:19;100005.84;;;29.40;28.03
38038;BME280;23843;51.320;12.340;2023-04-22T07:20:46;99993.13;;;30.11;29.52
38038;BME280;23843;51.320;12.340;2023-04-22T07:23:11;99990.53;;;30.23;27.54
38038;BME280;23843;51.320;12.340;2023-04-22T07:25:37;100000.22;;;31.07;26.70
38038;BME280;23843;51.320;12.340;2023-04-22T07:28:02;99992.31;;;31.54;24.31
38038;BME280;23843;51.320;12.340;2023-04-22T07:30:27;99994.66;;;31.69;23.47
38038;BME280;23843;51.320;12.340;2023-04-22T07:32:53;99980.81;;;31.83;24.61
38038;BME280;23843;51.320;12.340;2023-04-22T07:35:18;99983.63;;;32.36;25.46
38038;BME280;23843;51.320;12.340;2023-04-22T07:37:45;99987.38;;;33.36;24.40
38038;BME280;23843;51.320;12.340;2023-04-22T07:40:11;99984.75;;;33.30;23.38
38038;BME280;23843;51.320;12.340;2023-04-22T07:42:37;99988.69;;;33.34;23.34
38038;BME280;23843;51.320;12.340;2023-04-22T07:45:03;99986.94;;;32.92;22.04
38038;BME280;23843;51.320;12.340;2023-04-22T07:47:29;99984.59;;;33.48;22.52
38038;BME280;23843;51.320;12.340;2023-04-22T07:49:54;99980.03;;;33.94;22.34
38038;BME280;23843;51.320;12.340;2023-04-22T07:52:20;99975.06;;;34.87;22.53
38038;BME280;23843;51.320;12.340;2023-04-22T07:54:47;99975.38;;;34.40;20.35
38038;BME280;23843;51.320;12.340;2023-04-22T07:57:12;99970.81;;;34.00;22.04
38038;BME280;23843;51.320;12.340;2023-04-22T07:59:37;99965.06;;;34.47;21.37
38038;BME280;23843;51.320;12.340;2023-04-22T08:02:03;99964.88;;;34.37;22.05
38038;BME280;23843;51.320;12.340;2023-04-22T08:04:28;99966.88;;;35.53;21.91
38038;BME280;23843;51.320;12.340;2023-04-22T08:06:54;99959.19;;;36.32;17.63
38038;BME280;23843;51.320;12.340;2023-04-22T08:09:19;99965.75;;;36.95;19.58
38038;BME280;23843;51.320;12.340;2023-04-22T08:11:46;99963.97;;;36.41;19.15
38038;BME280;23843;51.320;12.340;2023-04-22T08:14:12;99962.78;;;35.56;20.02
38038;BME280;23843;51.320;12.340;2023-04-22T08:16:38;99958.69;;;34.98;20.80
38038;BME280;23843;51.320;12.340;2023-04-22T08:19:04;99961.38;;;34.92;17.60
38038;BME280;23843;51.320;12.340;2023-04-22T08:21:29;99965.59;;;33.87;19.57
38038;BME280;23843;51.320;12.340;2023-04-22T08:23:55;99964.00;;;33.34;19.33
38038;BME280;23843;51.320;12.340;2023-04-22T08:26:20;99967.56;;;32.99;19.81
38038;BME280;23843;51.320;12.340;2023-04-22T08:28:47;99965.19;;;33.02;19.65
38038;BME280;23843;51.320;12.340;2023-04-22T08:31:13;99965.78;;;33.16;18.86
38038;BME280;23843;51.320;12.340;2023-04-22T08:33:38;99952.00;;;33.52;17.19
38038;BME280;23843;51.320;12.340;2023-04-22T08:36:04;99942.16;;;33.67;17.82
38038;BME280;23843;51.320;12.340;2023-04-22T08:38:30;99938.31;;;33.80;18.64
38038;BME280;23843;51.320;12.340;2023-04-22T08:40:56;99951.16;;;33.51;18.26
38038;BME280;23843;51.320;12.340;2023-04-22T08:43:22;99943.38;;;32.96;18.92
38038;BME280;23843;51.320;12.340;2023-04-22T08:45:51;99952.91;;;31.74;30.74
38038;BME280;23843;51.320;12.340;2023-04-22T08:48:17;99954.22;;;30.72;27.48
38038;BME280;23843;51.320;12.340;2023-04-22T08:50:43;99952.63;;;30.40;27.50
38038;BME280;23843;51.320;12.340;2023-04-22T08:53:11;99953.06;;;30.37;25.51
38038;BME280;23843;51.320;12.340;2023-04-22T08:55:37;99955.41;;;30.58;26.79
38038;BME280;23843;51.320;12.340;2023-04-22T08:58:04;99949.13;;;31.01;25.17
38038;BME280;23843;51.320;12.340;2023-04-22T09:00:30;99950.19;;;31.00;24.72
38038;BME280;23843;51.320;12.340;2023-04-22T09:03:00;99945.56;;;30.76;25.36
38038;BME280;23843;51.320;12.340;2023-04-22T09:05:26;99942.38;;;30.79;24.02
38038;BME280;23843;51.320;12.340;2023-04-22T09:07:52;99937.84;;;30.47;23.88
38038;BME280;23843;51.320;12.340;2023-04-22T09:10:18;99938.84;;;30.97;25.98
38038;BME280;23843;51.320;12.340;2023-04-22T09:12:45;99940.84;;;31.26;25.61
38038;BME280;23843;51.320;12.340;2023-04-22T09:15:11;99940.38;;;31.48;24.55
38038;BME280;23843;51.320;12.340;2023-04-22T09:17:36;99939.94;;;30.96;24.11
38038;BME280;23843;51.320;12.340;2023-04-22T09:20:05;99939.00;;;31.02;25.18
38038;BME280;23843;51.320;12.340;2023-04-22T09:22:37;99930.72;;;31.64;25.95
38038;BME280;23843;51.320;12.340;2023-04-22T09:25:02;99930.03;;;31.50;24.08
38038;BME280;23843;51.320;12.340;2023-04-22T09:27:28;99925.78;;;31.84;24.14
38038;BME280;23843;51.320;12.340;2023-04-22T09:29:54;99919.81;;;32.06;23.08
38038;BME280;23843;51.320;12.340;2023-04-22T09:32:23;99926.97;;;32.18;22.86
38038;BME280;23843;51.320;12.340;2023-04-22T09:34:51;99924.19;;;31.95;22.59
38038;BME280;23843;51.320;12.340;2023-04-22T09:37:24;99926.94;;;31.28;22.86
38038;BME280;23843;51.320;12.340;2023-04-22T09:39:50;99927.19;;;30.39;23.02
38038;BME280;23843;51.320;12.340;2023-04-22T09:42:15;99923.28;;;30.54;23.67
38038;BME280;23843;51.320;12.340;2023-04-22T09:44:41;99918.03;;;30.52;23.85
38038;BME280;23843;51.320;12.340;2023-04-22T09:47:06;99916.75;;;29.98;23.84
38038;BME280;23843;51.320;12.340;2023-04-22T09:49:35;99914.63;;;29.16;24.80
38038;BME280;23843;51.320;12.340;2023-04-22T09:52:01;99930.25;;;28.63;25.57
38038;BME280;23843;51.320;12.340;2023-04-22T09:54:28;99928.97;;;28.25;25.14
38038;BME280;23843;51.320;12.340;2023-04-22T09:56:53;99918.47;;;27.89;26.13
38038;BME280;23843;51.320;12.340;2023-04-22T09:59:20;99918.94;;;27.44;26.70
38038;BME280;23843;51.320;12.340;2023-04-22T10:01:46;99919.00;;;26.81;26.60
38038;BME280;23843;51.320;12.340;2023-04-22T10:04:12;99921.09;;;26.51;26.82
38038;BME280;23843;51.320;12.340;2023-04-22T10:06:38;99921.19;;;26.15;26.97
38038;BME280;23843;51.320;12.340;2023-04-22T10:09:04;99914.66;;;25.51;27.67
38038;BME280;23843;51.320;12.340;2023-04-22T10:11:31;99914.34;;;24.95;29.17
38038;BME280;23843;51.320;12.340;2023-04-22T10:13:57;99905.81;;;24.98;28.95
38038;BME280;23843;51.320;12.340;2023-04-22T10:16:23;99906.13;;;25.18;29.03
38038;BME280;23843;51.320;12.340;2023-04-22T10:18:50;99902.09;;;24.84;28.93
38038;BME280;23843;51.320;12.340;2023-04-22T10:21:16;99903.41;;;24.73;28.54
38038;BME280;23843;51.320;12.340;2023-04-22T10:23:45;99903.03;;;24.76;27.78
38038;BME280;23843;51.320;12.340;2023-04-22T10:28:58;99900.28;;;24.24;29.14
38038;BME280;23843;51.320;12.340;2023-04-22T10:31:24;99902.66;;;24.27;28.26
38038;BME280;23843;51.320;12.340;2023-04-22T10:33:49;99897.78;;;23.99;29.05
38038;BME280;23843;51.320;12.340;2023-04-22T10:36:16;99894.94;;;23.69;28.87
38038;BME280;23843;51.320;12.340;2023-04-22T10:39:14;99900.50;;;23.76;29.27
38038;BME280;23843;51.320;12.340;2023-04-22T10:41:40;99891.75;;;23.66;28.61
38038;BME280;23843;51.320;12.340;2023-04-22T10:44:07;99889.38;;;23.63;28.46
38038;BME280;23843;51.320;12.340;2023-04-22T10:46:54;99892.06;;;23.71;28.38
38038;BME280;23843;51.320;12.340;2023-04-22T10:49:21;99888.75;;;23.61;27.96
38038;BME280;23843;51.320;12.340;2023-04-22T10:51:49;99884.88;;;23.55;28.43
38038;BME280;23843;51.320;12.340;2023-04-22T10:57:18;99877.78;;;22.83;28.31
38038;BME280;23843;51.320;12.340;2023-04-22T10:59:47;99868.47;;;22.86;29.43
38038;BME280;23843;51.320;12.340;2023-04-22T11:02:14;99870.31;;;22.94;29.10
38038;BME280;23843;51.320;12.340;2023-04-22T11:04:41;99862.88;;;22.96;29.78
38038;BME280;23843;51.320;12.340;2023-04-22T11:07:13;99856.31;;;22.90;29.47
38038;BME280;23843;51.320;12.340;2023-04-22T11:09:38;99860.09;;;23.20;29.44
38038;BME280;23843;51.320;12.340;2023-04-22T11:12:41;99859.41;;;23.18;29.26
38038;BME280;23843;51.320;12.340;2023-04-22T11:15:10;99853.94;;;22.95;29.61
38038;BME280;23843;51.320;12.340;2023-04-22T11:17:37;99851.50;;;22.69;29.63
38038;BME280;23843;51.320;12.340;2023-04-22T11:20:05;99842.56;;;22.69;29.57
38038;BME280;23843;51.320;12.340;2023-04-22T11:22:33;99842.03;;;22.73;29.93
38038;BME280;23843;51.320;12.340;2023-04-22T11:25:00;99848.31;;;22.65;30.49
38038;BME280;23843;51.320;12.340;2023-04-22T11:27:26;99841.22;;;22.64;30.46
38038;BME280;23843;51.320;12.340;2023-04-22T11:30:01;99847.56;;;22.80;30.78
38038;BME280;23843;51.320;12.340;2023-04-22T11:32:28;99853.19;;;22.62;30.48
38038;BME280;23843;51.320;12.340;2023-04-22T11:34:54;99847.13;;;22.60;30.63
38038;BME280;23843;51.320;12.340;2023-04-22T11:37:19;99853.72;;;22.57;30.03
38038;BME280;23843;51.320;12.340;2023-04-22T11:39:45;99848.69;;;22.38;31.07
38038;BME280;23843;51.320;12.340;2023-04-22T11:42:11;99835.25;;;22.30;31.24
38038;BME280;23843;51.320;12.340;2023-04-22T11:44:37;99837.91;;;22.38;30.61
38038;BME280;23843;51.320;12.340;2023-04-22T11:47:02;99831.47;;;22.47;30.91
38038;BME280;23843;51.320;12.340;2023-04-22T11:49:29;99835.91;;;22.32;30.45
38038;BME280;23843;51.320;12.340;2023-04-22T11:51:55;99830.84;;;22.12;31.24
38038;BME280;23843;51.320;12.340;2023-04-22T11:54:31;99818.72;;;22.00;31.68
38038;BME280;23843;51.320;12.340;2023-04-22T11:56:56;99839.44;;;21.99;31.98
38038;BME280;23843;51.320;12.340;2023-04-22T11:59:23;99829.16;;;21.87;32.96
38038;BME280;23843;51.320;12.340;2023-04-22T12:01:48;99829.03;;;21.80;33.67
38038;BME280;23843;51.320;12.340;2023-04-22T12:04:14;99839.59;;;21.65;33.13
38038;BME280;23843;51.320;12.340;2023-04-22T12:06:41;99834.56;;;21.54;34.03
38038;BME280;23843;51.320;12.340;2023-04-22T12:09:07;99825.09;;;21.50;34.25
38038;BME280;23843;51.320;12.340;2023-04-22T12:11:32;99820.91;;;21.47;33.79
38038;BME280;23843;51.320;12.340;2023-04-22T12:14:04;99817.84;;;21.50;40.11
38038;BME280;23843;51.320;12.340;2023-04-22T12:16:38;99817.38;;;21.47;33.76
38038;BME280;23843;51.320;12.340;2023-04-22T12:19:04;99814.81;;;21.45;33.64
38038;BME280;23843;51.320;12.340;2023-04-22T12:21:33;99806.25;;;21.42;33.85
38038;BME280;23843;51.320;12.340;2023-04-22T12:24:01;99793.13;;;21.47;33.89
38038;BME280;23843;51.320;12.340;2023-04-22T12:26:27;99786.72;;;21.56;32.58
38038;BME280;23843;51.320;12.340;2023-04-22T12:28:53;99797.81;;;21.45;33.08
38038;BME280;23843;51.320;12.340;2023-04-22T12:31:19;99784.03;;;21.56;33.53
38038;BME280;23843;51.320;12.340;2023-04-22T12:33:45;99784.84;;;21.65;33.24
38038;BME280;23843;51.320;12.340;2023-04-22T12:36:10;99788.25;;;21.58;33.38
38038;BME280;23843;51.320;12.340;2023-04-22T12:38:36;99793.78;;;21.65;32.80
38038;BME280;23843;51.320;12.340;2023-04-22T12:41:07;99798.84;;;21.52;31.81
38038;BME280;23843;51.320;12.340;2023-04-22T12:43:33;99793.44;;;21.52;32.15
38038;BME280;23843;51.320;12.340;2023-04-22T12:45:58;99784.03;;;21.56;32.78